Time;durP1;ratioP1;P1;durP2;ratioP2;P2;SDS_P1;SDS_P2;PMS_P1;PMS_P2;Temp;Humidity;BMP_temperature;BMP_pressure;BME280_temperature;BME280_humidity;BME280_pressure;Samples;Min_cycle;Max_cycle;Signal;HPM_P1;HPM_P2
2022/03/03 00:01:46;;;;;;;0.90;0.90;;;;;;;3.41;70.77;95051.88;5135697;27;20435;-55
2022/03/03 00:04:15;;;;;;;0.67;0.67;;;;;;;3.87;70.29;95052.78;5136190;27;20540;-55
2022/03/03 00:06:44;;;;;;;0.30;0.20;;;;;;;3.39;66.75;95048.69;5136039;27;20535;-55
2022/03/03 00:09:13;;;;;;;0.70;0.40;;;;;;;3.47;65.59;95043.09;5135797;27;20473;-55
2022/03/03 00:11:42;;;;;;;0.40;0.40;;;;;;;3.48;65.14;95041.25;5135641;27;20427;-56
2022/03/03 00:14:10;;;;;;;0.30;0.20;;;;;;;3.40;67.88;95052.09;5135279;27;20457;-56
2022/03/03 00:16:39;;;;;;;0.30;0.20;;;;;;;3.16;65.56;95046.13;5135847;27;20487;-55
2022/03/03 00:19:07;;;;;;;0.50;0.40;;;;;;;2.93;69.09;95049.53;5135842;27;20514;-55
2022/03/03 00:21:36;;;;;;;0.30;0.20;;;;;;;2.94;73.52;95039.84;5134645;27;20502;-55
2022/03/03 00:24:06;;;;;;;0.40;0.40;;;;;;;2.45;70.52;95051.56;5135286;27;20424;-55
2022/03/03 00:26:34;;;;;;;0.30;0.20;;;;;;;2.88;71.71;95040.78;5135335;27;20489;-55
2022/03/03 00:29:03;;;;;;;0.60;0.60;;;;;;;2.83;71.85;95045.91;5134966;27;20435;-55
2022/03/03 00:31:32;;;;;;;0.37;0.27;;;;;;;2.49;71.35;95047.44;5134858;27;20461;-56
2022/03/03 00:34:00;;;;;;;0.30;0.23;;;;;;;2.46;72.92;95051.31;5135308;27;20475;-55
2022/03/03 00:36:29;;;;;;;0.30;0.20;;;;;;;2.43;74.58;95048.34;5135307;27;20786;-55
2022/03/03 00:38:57;;;;;;;0.37;0.30;;;;;;;2.72;76.83;95041.44;5134160;27;20461;-56
2022/03/03 00:41:27;;;;;;;0.30;0.20;;;;;;;2.70;73.01;95046.13;5134400;27;20462;-56
2022/03/03 00:43:55;;;;;;;0.30;0.20;;;;;;;2.76;70.93;95047.84;5135112;27;20919;-55
2022/03/03 00:46:26;;;;;;;0.30;0.20;;;;;;;3.16;73.67;95053.97;5134582;27;20846;-57
2022/03/03 00:48:55;;;;;;;0.30;0.20;;;;;;;2.89;71.66;95043.16;5134980;27;20426;-55
2022/03/03 00:51:23;;;;;;;0.50;0.50;;;;;;;2.51;70.67;95053.25;5134136;27;20464;-56
2022/03/03 00:53:52;;;;;;;0.30;0.20;;;;;;;2.55;72.70;95051.78;5134736;27;20931;-56
2022/03/03 00:56:21;;;;;;;0.30;0.27;;;;;;;2.39;76.01;95052.44;5135062;27;20510;-56
2022/03/03 00:58:51;;;;;;;0.30;0.30;;;;;;;2.39;76.25;95053.25;5134846;27;20515;-56
2022/03/03 01:01:19;;;;;;;0.30;0.30;;;;;;;2.76;74.21;95048.63;5133296;27;20469;-56
2022/03/03 01:03:48;;;;;;;0.30;0.20;;;;;;;2.11;74.93;94985.09;5134947;27;20459;-56
2022/03/03 01:06:16;;;;;;;5.60;0.93;;;;;;;2.32;73.51;95049.94;5134423;27;20886;-56
2022/03/03 01:08:45;;;;;;;0.30;0.20;;;;;;;2.45;76.13;95051.56;5134529;27;20923;-56
2022/03/03 01:11:16;;;;;;;0.50;0.50;;;;;;;2.61;72.76;95045.66;5133919;27;20418;-56
2022/03/03 01:13:45;;;;;;;0.30;0.10;;;;;;;3.17;78.92;95038.03;5134271;27;20526;-55
2022/03/03 01:16:14;;;;;;;0.50;0.50;;;;;;;3.35;71.89;95044.94;5134174;27;20465;-55
2022/03/03 01:18:43;;;;;;;0.30;0.20;;;;;;;3.42;66.70;95048.22;5134116;27;20517;-55
2022/03/03 01:21:12;;;;;;;0.30;0.20;;;;;;;2.89;66.39;95048.38;5133637;27;20462;-55
2022/03/03 01:23:40;;;;;;;0.33;0.27;;;;;;;2.92;73.18;95044.53;5133846;27;21044;-56
2022/03/03 01:26:09;;;;;;;0.30;0.20;;;;;;;2.40;69.62;95044.34;5134677;27;20490;-56
2022/03/03 01:28:37;;;;;;;0.43;0.40;;;;;;;2.31;69.43;95035.25;5134197;27;20565;-55
2022/03/03 01:31:05;;;;;;;0.30;0.20;;;;;;;2.68;80.24;95042.94;5134021;27;20518;-55
2022/03/03 01:33:35;;;;;;;0.30;0.20;;;;;;;2.81;69.06;95037.50;5134105;27;20427;-56
2022/03/03 01:36:04;;;;;;;0.30;0.20;;;;;;;2.30;68.47;95048.56;5134333;27;20517;-54
2022/03/03 01:38:33;;;;;;;0.30;0.20;;;;;;;2.20;70.90;95041.25;5133786;27;20484;-54
2022/03/03 01:41:01;;;;;;;0.30;0.30;;;;;;;2.83;68.10;95041.47;5133974;27;20435;-54
2022/03/03 01:43:29;;;;;;;0.53;0.53;;;;;;;3.17;65.61;95039.84;5133935;27;20487;-54
2022/03/03 01:45:58;;;;;;;0.40;0.30;;;;;;;2.91;65.75;95038.47;5133735;27;20463;-54
2022/03/03 01:48:27;;;;;;;0.57;0.57;;;;;;;2.63;67.59;95038.38;5133727;27;20491;-56
2022/03/03 01:50:56;;;;;;;0.30;0.20;;;;;;;2.25;71.01;95045.84;5135056;27;20503;-56
2022/03/03 01:53:25;;;;;;;0.30;0.20;;;;;;;2.33;71.74;95045.47;5133621;27;20954;-55
2022/03/03 01:55:55;;;;;;;0.30;0.20;;;;;;;2.10;73.75;95048.84;5133532;27;20495;-55
2022/03/03 01:58:23;;;;;;;0.30;0.20;;;;;;;2.27;78.69;95049.00;5133832;27;20809;-55
2022/03/03 02:00:52;;;;;;;0.50;0.50;;;;;;;1.82;75.17;95049.44;5133728;27;20769;-55
2022/03/03 02:03:21;;;;;;;2.80;2.53;;;;;;;1.83;79.24;95043.19;5133799;27;20460;-55
2022/03/03 02:05:50;;;;;;;0.77;0.77;;;;;;;2.19;76.02;95052.75;5133060;27;20539;-55
2022/03/03 02:08:20;;;;;;;0.30;0.20;;;;;;;2.16;75.08;95057.59;5133010;27;20521;-55
2022/03/03 02:10:48;;;;;;;0.43;0.40;;;;;;;2.35;76.17;95054.69;5133504;27;20414;-55
2022/03/03 02:13:16;;;;;;;0.40;0.30;;;;;;;2.03;74.22;95048.13;5133156;27;20469;-55
2022/03/03 02:15:48;;;;;;;0.90;0.90;;;;;;;2.16;74.35;95042.72;5132698;27;20430;-55
2022/03/03 02:18:17;;;;;;;0.30;0.20;;;;;;;1.87;72.65;95044.34;5133244;27;20448;-55
2022/03/03 02:20:47;;;;;;;0.40;0.30;;;;;;;1.58;76.05;95045.13;5133593;27;20509;-55
2022/03/03 02:23:18;;;;;;;0.60;0.30;;;;;;;1.88;76.08;95053.78;5132763;27;20470;-55
2022/03/03 02:25:47;;;;;;;0.30;0.30;;;;;;;1.81;77.10;95044.44;5132903;27;20433;-55
2022/03/03 02:28:16;;;;;;;0.40;0.30;;;;;;;2.13;74.41;95047.59;5133150;27;21020;-55
2022/03/03 02:30:44;;;;;;;0.30;0.23;;;;;;;1.85;76.55;95032.50;5132776;27;20435;-55
2022/03/03 02:33:12;;;;;;;0.30;0.20;;;;;;;2.21;75.68;95045.47;5133259;27;20458;-55
2022/03/03 02:35:41;;;;;;;0.30;0.20;;;;;;;2.35;72.11;95040.84;5133088;27;20915;-55
2022/03/03 02:38:11;;;;;;;0.73;0.70;;;;;;;2.07;74.07;95044.09;5131900;27;20471;-55
2022/03/03 02:40:39;;;;;;;0.30;0.20;;;;;;;2.23;73.15;95040.00;5132639;27;20479;-55
2022/03/03 02:43:08;;;;;;;0.30;0.20;;;;;;;1.80;72.51;95042.81;5133236;27;20454;-54
2022/03/03 02:45:36;;;;;;;0.43;0.40;;;;;;;1.54;76.05;95043.19;5133046;27;20445;-54
2022/03/03 02:48:05;;;;;;;0.30;0.20;;;;;;;1.38;77.38;95041.16;5132815;28;20541;-55
2022/03/03 02:50:33;;;;;;;0.30;0.20;;;;;;;1.32;77.06;95044.66;5132904;28;20422;-55
2022/03/03 02:53:02;;;;;;;0.30;0.20;;;;;;;1.44;77.25;95045.50;5132850;28;20450;-55
2022/03/03 02:55:32;;;;;;;0.53;0.40;;;;;;;1.22;77.41;95045.94;5132558;28;20514;-55
2022/03/03 02:58:00;;;;;;;0.30;0.30;;;;;;;1.41;76.75;95038.13;5132664;28;20422;-55
2022/03/03 03:00:38;;;;;;;1.43;0.60;;;;;;;1.60;76.42;95047.50;5133094;28;20438;-55
2022/03/03 03:03:07;;;;;;;0.37;0.33;;;;;;;1.20;78.22;95048.00;5132775;28;20422;-55
2022/03/03 03:05:35;;;;;;;0.30;0.20;;;;;;;1.37;76.19;95044.81;5132620;28;20427;-55
2022/03/03 03:08:05;;;;;;;0.30;0.20;;;;;;;1.11;76.75;95040.66;5132575;28;20906;-55
2022/03/03 03:10:35;;;;;;;0.30;0.20;;;;;;;1.12;78.83;95037.03;5132578;28;20990;-55
2022/03/03 03:13:03;;;;;;;0.30;0.20;;;;;;;1.33;76.67;95039.22;5132494;28;20455;-55
2022/03/03 03:15:32;;;;;;;0.30;0.20;;;;;;;1.32;78.04;95042.81;5132969;28;20856;-55
2022/03/03 03:18:09;;;;;;;0.87;0.87;;;;;;;1.39;76.43;95004.41;5132503;28;20974;-55
2022/03/03 03:20:39;;;;;;;0.30;0.20;;;;;;;1.47;74.76;95042.47;5132624;28;20525;-55
2022/03/03 03:23:07;;;;;;;0.30;0.30;;;;;;;1.71;74.32;95044.16;5131942;27;20498;-55
2022/03/03 03:25:39;;;;;;;0.30;0.30;;;;;;;1.97;70.72;95037.78;5135727;27;20461;-55
2022/03/03 03:28:08;;;;;;;0.30;0.20;;;;;;;1.84;72.00;95044.00;5136470;27;20986;-55
2022/03/03 03:30:36;;;;;;;0.47;0.47;;;;;;;2.07;71.27;95031.00;5136289;27;20467;-55
2022/03/03 03:33:05;;;;;;;0.30;0.30;;;;;;;1.83;71.31;95039.78;5137021;27;20446;-56
2022/03/03 03:35:35;;;;;;;0.20;0.20;;;;;;;2.49;72.38;95034.38;5136159;27;20458;-55
2022/03/03 03:38:04;;;;;;;0.30;0.20;;;;;;;2.03;68.02;95031.66;5135737;27;20885;-55
2022/03/03 03:40:32;;;;;;;1.13;0.50;;;;;;;1.57;68.81;95034.91;5135990;27;20423;-55
2022/03/03 03:43:02;;;;;;;0.30;0.20;;;;;;;1.27;71.56;95029.63;5136252;27;20509;-55
2022/03/03 03:45:31;;;;;;;0.30;0.20;;;;;;;1.48;70.87;95031.00;5136410;27;20877;-55
2022/03/03 03:48:00;;;;;;;0.30;0.30;;;;;;;1.78;69.10;95010.91;5135817;27;20457;-55
2022/03/03 03:50:29;;;;;;;0.30;0.20;;;;;;;1.88;68.33;95035.50;5135297;27;20458;-55
2022/03/03 03:52:57;;;;;;;0.30;0.20;;;;;;;1.97;68.23;95016.88;5136153;27;20498;-56
2022/03/03 03:55:26;;;;;;;0.30;0.20;;;;;;;1.88;66.71;95029.47;5135923;27;20473;-56
2022/03/03 03:57:54;;;;;;;0.30;0.20;;;;;;;1.84;65.80;95033.53;5136142;27;20853;-56
2022/03/03 04:00:24;;;;;;;0.30;0.30;;;;;;;1.59;65.41;95035.47;5135665;27;20883;-56
2022/03/03 04:02:53;;;;;;;0.20;0.20;;;;;;;1.71;64.23;95038.94;5136003;27;20518;-56
2022/03/03 04:05:21;;;;;;;2.87;2.67;;;;;;;1.43;67.40;95039.50;5135866;27;20474;-55
2022/03/03 04:07:50;;;;;;;0.30;0.30;;;;;;;1.17;68.59;95043.19;5135504;27;21034;-56
2022/03/03 04:10:18;;;;;;;0.60;0.60;;;;;;;1.08;69.39;95046.31;5136444;27;20871;-55
2022/03/03 04:12:47;;;;;;;0.80;0.80;;;;;;;1.08;70.14;95044.50;5136342;27;20427;-56
2022/03/03 04:15:15;;;;;;;0.33;0.33;;;;;;;0.99;70.30;95051.00;5136099;27;20454;-56
2022/03/03 04:17:45;;;;;;;0.30;0.20;;;;;;;0.95;71.10;95042.03;5135578;27;20875;-56
2022/03/03 04:20:13;;;;;;;0.30;0.20;;;;;;;1.10;71.59;95052.91;5135609;27;20513;-56
2022/03/03 04:22:42;;;;;;;0.30;0.20;;;;;;;0.95;72.17;95051.66;5135095;27;20901;-55
2022/03/03 04:25:11;;;;;;;0.50;0.50;;;;;;;0.89;73.08;95049.91;5135531;27;20464;-56
2022/03/03 04:27:40;;;;;;;0.30;0.30;;;;;;;1.05;75.07;95057.19;5135568;27;20553;-56
2022/03/03 04:30:11;;;;;;;0.70;0.70;;;;;;;1.09;74.56;95053.91;5135375;27;20440;-55
2022/03/03 04:32:40;;;;;;;5.20;0.50;;;;;;;1.11;72.42;95051.88;5134918;27;20466;-55
2022/03/03 04:35:11;;;;;;;0.50;0.50;;;;;;;1.36;73.47;95054.44;5133828;27;20454;-55
2022/03/03 04:37:40;;;;;;;0.90;0.90;;;;;;;1.43;70.76;95057.78;5134725;27;20431;-55
2022/03/03 04:40:09;;;;;;;0.40;0.40;;;;;;;0.93;72.86;95056.31;5134972;27;20419;-55
2022/03/03 04:42:38;;;;;;;0.30;0.20;;;;;;;1.00;74.96;95051.81;5135125;27;21052;-55
2022/03/03 04:45:08;;;;;;;0.30;0.20;;;;;;;1.03;73.43;95057.41;5134706;27;20427;-55
2022/03/03 04:47:36;;;;;;;0.30;0.30;;;;;;;0.93;73.88;95057.09;5135315;27;20518;-55
2022/03/03 04:50:06;;;;;;;1.70;1.60;;;;;;;1.07;73.25;95053.34;5134121;27;20427;-55
2022/03/03 04:52:36;;;;;;;0.37;0.33;;;;;;;1.02;73.14;95053.19;5133801;27;20541;-55
2022/03/03 04:55:05;;;;;;;0.30;0.20;;;;;;;1.29;73.56;95054.50;5134140;27;20466;-55
2022/03/03 04:57:34;;;;;;;0.30;0.30;;;;;;;1.38;71.22;95056.81;5134821;27;20441;-55
2022/03/03 05:00:04;;;;;;;0.40;0.37;;;;;;;1.02;74.45;95061.03;5134905;27;20462;-55
2022/03/03 05:02:34;;;;;;;0.30;0.30;;;;;;;0.42;75.81;94996.59;5134740;27;20438;-55
2022/03/03 05:05:02;;;;;;;0.50;0.40;;;;;;;0.54;77.49;95058.25;5134273;27;20907;-55
2022/03/03 05:07:31;;;;;;;0.30;0.27;;;;;;;0.56;78.43;95071.06;5134832;27;20950;-55
2022/03/03 05:10:01;;;;;;;3.03;2.83;;;;;;;0.52;78.52;95070.72;5134655;27;20447;-55
2022/03/03 05:12:31;;;;;;;0.47;0.47;;;;;;;0.67;76.68;95067.78;5133967;27;20422;-56
2022/03/03 05:14:59;;;;;;;0.57;0.57;;;;;;;0.75;74.23;95074.53;5134689;27;20488;-55
2022/03/03 05:17:28;;;;;;;0.30;0.20;;;;;;;1.12;72.60;95065.72;5134024;27;20877;-55
2022/03/03 05:19:57;;;;;;;0.53;0.53;;;;;;;0.60;74.20;95067.84;5133721;27;20914;-55
2022/03/03 05:22:26;;;;;;;1.20;1.20;;;;;;;0.40;77.02;95069.81;5133403;27;20481;-54
2022/03/03 05:24:55;;;;;;;0.20;0.20;;;;;;;0.89;75.55;95074.19;5134301;27;20449;-55
2022/03/03 05:27:26;;;;;;;1.63;1.60;;;;;;;0.89;75.16;95071.59;5134888;27;20430;-56
2022/03/03 05:29:54;;;;;;;0.30;0.20;;;;;;;0.38;77.84;95048.34;5134508;27;20430;-55
2022/03/03 05:32:23;;;;;;;1.17;1.17;;;;;;;0.46;76.89;95068.13;5134546;27;20450;-55
2022/03/03 05:34:51;;;;;;;1.97;0.80;;;;;;;0.43;77.13;95069.38;5134280;27;20514;-54
2022/03/03 05:37:24;;;;;;;0.40;0.37;;;;;;;0.60;77.40;95090.50;5134296;27;20521;-54
2022/03/03 05:39:54;;;;;;;0.57;0.57;;;;;;;0.57;77.45;95068.25;5134298;27;20427;-54
2022/03/03 05:42:24;;;;;;;1.47;1.47;;;;;;;0.86;75.96;95069.41;5135019;27;20448;-54
2022/03/03 05:44:54;;;;;;;0.30;0.30;;;;;;;0.82;74.78;95065.63;5134531;27;20815;-54
2022/03/03 05:47:24;;;;;;;0.30;0.23;;;;;;;1.08;74.46;95065.38;5133769;27;20441;-54
2022/03/03 05:49:55;;;;;;;0.70;0.70;;;;;;;1.20;72.37;95068.88;5132610;27;21054;-54
2022/03/03 05:52:23;;;;;;;2.23;2.13;;;;;;;1.67;69.83;95074.38;5133979;27;20449;-55
2022/03/03 05:54:52;;;;;;;0.57;0.57;;;;;;;2.03;66.91;95069.06;5134179;27;20469;-55
2022/03/03 05:57:27;;;;;;;0.30;0.30;;;;;;;1.55;67.90;95069.06;5133786;27;20423;-55
2022/03/03 06:00:03;;;;;;;0.63;0.63;;;;;;;1.85;64.86;95076.94;5134127;27;20426;-55
2022/03/03 06:02:32;;;;;;;0.30;0.30;;;;;;;1.89;64.40;95000.50;5133864;27;20429;-55
2022/03/03 06:05:04;;;;;;;1.40;1.40;;;;;;;1.94;64.40;94989.38;5134001;27;20429;-55
2022/03/03 06:07:35;;;;;;;1.80;1.80;;;;;;;2.60;60.78;95080.69;5133707;27;20444;-55
2022/03/03 06:10:05;;;;;;;1.80;0.73;;;;;;;2.41;60.52;95084.41;5133607;27;20537;-55
2022/03/03 06:12:41;;;;;;;3.17;1.13;;;;;;;2.86;60.79;95042.84;5133690;27;20426;-51
2022/03/03 06:15:14;;;;;;;0.30;0.20;;;;;;;4.30;69.51;95081.91;5133257;27;20968;-51
2022/03/03 06:17:44;;;;;;;2.10;0.57;;;;;;;4.73;62.34;95076.84;5132669;27;20439;-51
2022/03/03 06:20:14;;;;;;;0.40;0.40;;;;;;;5.12;53.47;95080.31;5133154;27;20443;-51
2022/03/03 06:22:42;;;;;;;2.30;2.10;;;;;;;5.33;51.27;95034.13;5132962;27;20541;-51
2022/03/03 06:25:11;;;;;;;2.60;2.50;;;;;;;4.73;55.07;95084.72;5133174;27;20407;-51
2022/03/03 06:27:40;;;;;;;0.73;0.73;;;;;;;5.96;59.04;95080.94;5133078;27;20843;-50
2022/03/03 06:30:12;;;;;;;3.07;2.07;;;;;;;6.17;51.82;95082.75;5132735;27;20493;-51
2022/03/03 06:32:40;;;;;;;4.97;3.33;;;;;;;6.30;50.99;95077.88;5132752;27;20808;-50
2022/03/03 06:35:09;;;;;;;0.40;0.40;;;;;;;6.32;49.96;95082.91;5132704;27;20989;-50
2022/03/03 06:37:38;;;;;;;0.50;0.40;;;;;;;6.60;49.21;95082.66;5132737;27;21003;-50
2022/03/03 06:40:07;;;;;;;0.57;0.57;;;;;;;6.76;50.24;95086.19;5132896;27;20846;-49
2022/03/03 06:42:35;;;;;;;4.80;4.50;;;;;;;6.71;48.70;95029.03;5132810;27;20418;-49
2022/03/03 06:45:05;;;;;;;0.50;0.50;;;;;;;7.09;48.30;95085.94;5132827;27;20426;-49
2022/03/03 06:47:36;;;;;;;1.00;1.00;;;;;;;6.77;46.99;95087.81;5132790;28;20446;-50
2022/03/03 06:50:05;;;;;;;0.60;0.60;;;;;;;7.65;45.40;95084.44;5132705;28;20458;-50
2022/03/03 06:52:36;;;;;;;10.87;2.73;;;;;;;7.21;46.81;95075.25;5133065;28;20839;-50
2022/03/03 06:55:08;;;;;;;0.97;0.93;;;;;;;7.42;45.75;95088.28;5133089;27;20954;-49
2022/03/03 06:57:39;;;;;;;0.80;0.80;;;;;;;7.58;46.15;95084.69;5132892;27;21006;-49
2022/03/03 07:00:09;;;;;;;1.17;1.17;;;;;;;7.53;45.47;95078.59;5135899;27;20441;-49
2022/03/03 07:02:41;;;;;;;0.60;0.60;;;;;;;8.67;43.79;95081.13;5136934;27;20433;-49
2022/03/03 07:05:12;;;;;;;0.83;0.83;;;;;;;9.15;43.58;95077.97;5136302;27;20430;-49
2022/03/03 07:07:43;;;;;;;0.60;0.40;;;;;;;9.44;41.99;95076.31;5136716;27;20462;-48
2022/03/03 07:10:13;;;;;;;2.33;2.27;;;;;;;8.34;42.34;94995.25;5136591;27;20486;-49
2022/03/03 07:12:42;;;;;;;0.57;0.57;;;;;;;9.46;41.13;95081.38;5136570;27;20877;-49
2022/03/03 07:15:11;;;;;;;0.83;0.80;;;;;;;9.39;41.55;95086.91;5136836;27;20427;-49
2022/03/03 07:17:47;;;;;;;0.80;0.80;;;;;;;8.79;41.82;95085.09;5136663;27;20423;-49
2022/03/03 07:20:19;;;;;;;0.80;0.80;;;;;;;9.62;40.44;95080.25;5136564;27;20429;-49
2022/03/03 07:23:01;;;;;;;0.57;0.50;;;;;;;9.33;41.30;95079.25;5136595;27;20469;-49
2022/03/03 07:25:43;;;;;;;3.90;2.17;;;;;;;9.29;40.92;95064.97;5136218;27;20517;-50
2022/03/03 07:28:12;;;;;;;1.70;0.57;;;;;;;10.01;39.15;95069.81;5136381;27;20505;-49
2022/03/03 07:30:43;;;;;;;1.10;1.07;;;;;;;10.83;37.81;95063.78;5135904;27;21053;-50
2022/03/03 07:33:17;;;;;;;0.67;0.60;;;;;;;10.73;37.93;95054.06;5136142;27;20513;-50
2022/03/03 07:35:49;;;;;;;1.10;1.10;;;;;;;11.56;37.22;95066.38;5136294;27;20505;-51
2022/03/03 07:38:19;;;;;;;2.50;2.40;;;;;;;11.43;37.17;95057.97;5136273;27;20487;-51
2022/03/03 07:40:49;;;;;;;2.47;0.87;;;;;;;11.14;37.21;95051.09;5136304;27;20545;-51
2022/03/03 07:43:19;;;;;;;0.50;0.40;;;;;;;11.61;37.25;95061.00;5136157;27;20421;-52
2022/03/03 07:45:47;;;;;;;1.53;0.73;;;;;;;12.67;35.56;95053.31;5136124;27;20479;-53
2022/03/03 07:48:17;;;;;;;19.57;1.80;;;;;;;12.96;34.65;95049.69;5135913;27;20451;-53
2022/03/03 07:50:46;;;;;;;0.53;0.53;;;;;;;13.44;33.73;95058.22;5136098;27;20477;-53
2022/03/03 07:53:14;;;;;;;1.47;1.37;;;;;;;12.67;34.44;95057.84;5136106;27;20462;-55
2022/03/03 07:55:45;;;;;;;1.80;1.70;;;;;;;12.18;35.97;95060.91;5135725;27;20426;-54
2022/03/03 07:58:15;;;;;;;0.80;0.60;;;;;;;13.04;34.73;95057.81;5135688;27;20469;-54
2022/03/03 08:00:50;;;;;;;1.30;1.27;;;;;;;11.91;35.59;95050.88;5135634;27;20522;-55
2022/03/03 08:03:22;;;;;;;2.50;2.40;;;;;;;12.81;34.47;95049.91;5135910;27;20533;-56
2022/03/03 08:05:56;;;;;;;1.97;1.07;;;;;;;12.19;34.42;95051.06;5134652;27;20510;-56
2022/03/03 08:08:27;;;;;;;2.00;1.90;;;;;;;12.60;34.45;95052.88;5135639;27;20428;-55
2022/03/03 08:10:59;;;;;;;1.10;1.10;;;;;;;12.19;34.56;95046.56;5135139;27;20553;-55
2022/03/03 08:13:29;;;;;;;0.70;0.60;;;;;;;13.28;33.20;95029.22;5135821;27;20817;-55
2022/03/03 08:15:59;;;;;;;4.43;2.10;;;;;;;14.07;31.33;95037.06;5135263;27;20506;-54
2022/03/03 08:18:31;;;;;;;1.00;0.80;;;;;;;14.09;31.53;95033.03;5135021;27;20429;-54
2022/03/03 08:21:01;;;;;;;0.67;0.67;;;;;;;14.61;30.51;95035.16;5135486;27;20557;-54
2022/03/03 08:23:30;;;;;;;0.50;0.40;;;;;;;13.37;30.30;95045.31;5135118;27;20470;-54
2022/03/03 08:26:00;;;;;;;1.03;1.03;;;;;;;13.72;30.77;94988.75;5135302;27;20438;-54
2022/03/03 08:28:31;;;;;;;0.40;0.30;;;;;;;14.80;30.17;95018.97;5135339;27;20483;-53
2022/03/03 08:31:04;;;;;;;1.47;1.37;;;;;;;14.02;40.16;95040.63;5135106;27;20478;-52
2022/03/03 08:33:50;;;;;;;1.13;1.13;;;;;;;13.73;30.76;95043.59;5135667;27;20422;-54
2022/03/03 08:36:26;;;;;;;1.57;1.47;;;;;;;14.66;29.04;95033.44;5135182;27;20430;-55
2022/03/03 08:39:02;;;;;;;6.87;2.37;;;;;;;15.53;30.33;95025.75;5135058;27;20462;-52
2022/03/03 08:41:35;;;;;;;0.60;0.50;;;;;;;16.31;27.77;95028.41;5134728;27;20517;-55
2022/03/03 08:44:07;;;;;;;0.90;0.87;;;;;;;15.96;27.87;95028.59;5134609;27;20919;-52
2022/03/03 08:46:38;;;;;;;2.00;1.90;;;;;;;15.53;26.67;95031.09;5134800;27;20495;-52
2022/03/03 08:49:12;;;;;;;1.73;1.63;;;;;;;15.77;27.51;95026.16;5134948;27;20426;-52
2022/03/03 08:51:41;;;;;;;5.60;1.40;;;;;;;14.74;27.46;95033.53;5134181;27;20534;-52
2022/03/03 08:54:11;;;;;;;0.80;0.80;;;;;;;15.33;26.86;95024.34;5134657;27;20462;-52
2022/03/03 08:56:39;;;;;;;1.47;1.37;;;;;;;16.39;26.57;95029.50;5134356;27;20463;-52
2022/03/03 08:59:08;;;;;;;0.77;0.77;;;;;;;16.58;24.93;95027.34;5134689;27;20434;-52
2022/03/03 09:01:36;;;;;;;3.10;1.03;;;;;;;17.80;24.53;95016.19;5134805;27;20496;-53
2022/03/03 09:04:06;;;;;;;0.70;0.70;;;;;;;16.54;24.86;95014.91;5134643;27;20434;-53
2022/03/03 09:06:36;;;;;;;0.67;0.67;;;;;;;14.42;26.35;95029.16;5134674;27;20426;-52
2022/03/03 09:09:05;;;;;;;1.23;1.23;;;;;;;15.53;25.53;95015.88;5134553;27;20533;-53
2022/03/03 09:11:33;;;;;;;2.43;0.40;;;;;;;15.83;23.59;95015.06;5134133;27;20586;-52
2022/03/03 09:14:02;;;;;;;1.27;1.17;;;;;;;16.54;23.31;95012.25;5134537;27;20458;-53
2022/03/03 09:16:30;;;;;;;0.53;0.43;;;;;;;16.31;22.21;95014.22;5134158;27;20477;-52
2022/03/03 09:18:59;;;;;;;1.47;1.37;;;;;;;16.92;21.67;95013.19;5134062;27;20426;-51
2022/03/03 09:21:28;;;;;;;2.43;2.33;;;;;;;16.71;21.62;95014.94;5133403;27;20435;-51
2022/03/03 09:23:58;;;;;;;0.60;0.40;;;;;;;18.11;22.48;95008.63;5134070;27;20474;-52
2022/03/03 09:26:27;;;;;;;0.77;0.77;;;;;;;18.56;20.62;95009.66;5133757;27;20461;-51
2022/03/03 09:28:56;;;;;;;1.20;0.60;;;;;;;18.39;20.13;95002.47;5133929;27;20447;-52
2022/03/03 09:31:25;;;;;;;0.53;0.50;;;;;;;20.11;19.85;94998.19;5133960;27;20462;-53
2022/03/03 09:34:11;;;;;;;0.50;0.40;;;;;;;19.33;19.58;94997.44;5134002;27;20905;-52
2022/03/03 09:36:40;;;;;;;0.50;0.40;;;;;;;19.11;19.87;94997.81;5134000;27;20488;-52
2022/03/03 09:39:10;;;;;;;0.53;0.50;;;;;;;18.51;20.21;95001.00;5133524;27;20911;-52
2022/03/03 09:41:38;;;;;;;0.50;0.40;;;;;;;20.19;18.61;95002.63;5133700;27;20422;-52
2022/03/03 09:44:07;;;;;;;3.50;1.17;;;;;;;20.29;19.38;94983.38;5133653;27;20430;-53
2022/03/03 09:46:37;;;;;;;0.57;0.57;;;;;;;21.12;17.19;94991.63;5133809;27;20484;-53
2022/03/03 09:49:06;;;;;;;0.40;0.30;;;;;;;21.39;17.95;94990.03;5133383;27;20423;-51
2022/03/03 09:51:34;;;;;;;5.07;1.37;;;;;;;19.67;18.28;94991.75;5133436;27;20499;-51
2022/03/03 09:54:05;;;;;;;0.40;0.33;;;;;;;20.00;18.76;94981.69;5133711;27;20450;-53
2022/03/03 09:56:36;;;;;;;0.40;0.30;;;;;;;20.72;19.76;94990.84;5133450;27;20522;-52
2022/03/03 09:59:05;;;;;;;0.80;0.50;;;;;;;19.04;19.80;94936.59;5132852;27;20450;-52
2022/03/03 10:01:34;;;;;;;0.40;0.40;;;;;;;20.34;20.02;94990.47;5133481;27;20465;-52
2022/03/03 10:04:15;;;;;;;1.80;0.60;;;;;;;21.11;18.69;94986.56;5133400;27;20907;-53
2022/03/03 10:06:44;;;;;;;1.47;1.37;;;;;;;19.58;20.11;94918.50;5133111;27;20446;-52
2022/03/03 10:09:13;;;;;;;0.60;0.47;;;;;;;20.52;19.09;94957.53;5133302;27;20415;-52
2022/03/03 10:11:59;;;;;;;1.00;0.60;;;;;;;19.05;19.71;94978.44;5133200;27;20477;-52
2022/03/03 10:14:30;;;;;;;0.70;0.50;;;;;;;19.38;20.23;94973.88;5133025;27;20434;-53
2022/03/03 10:16:58;;;;;;;0.40;0.40;;;;;;;18.47;20.99;94975.94;5132920;27;20467;-53
2022/03/03 10:19:52;;;;;;;0.93;0.67;;;;;;;18.63;20.29;94968.84;5133274;27;20430;-53
2022/03/03 10:22:25;;;;;;;0.40;0.30;;;;;;;17.87;20.74;94957.47;5132031;27;20473;-53
2022/03/03 10:24:54;;;;;;;0.40;0.40;;;;;;;17.94;21.56;94965.78;5133104;27;20418;-53
2022/03/03 10:27:24;;;;;;;0.77;0.77;;;;;;;19.67;19.26;94953.31;5132816;27;20529;-53
2022/03/03 10:32:39;;;;;;;1.27;0.50;;;;;;;22.94;15.10;94928.13;5132637;27;20430;-53
2022/03/03 10:35:16;;;;;;;0.40;0.30;;;;;;;21.89;16.11;94938.94;5133049;27;20775;-53
2022/03/03 10:37:46;;;;;;;0.50;0.50;;;;;;;22.57;16.40;94931.22;5132783;27;20517;-53
2022/03/03 10:40:16;;;;;;;0.50;0.43;;;;;;;20.00;17.99;94954.00;5132678;27;20926;-53
2022/03/03 10:42:50;;;;;;;0.50;0.50;;;;;;;20.19;18.40;94957.69;5132374;27;20495;-53
2022/03/03 10:45:21;;;;;;;0.43;0.40;;;;;;;21.58;17.21;94944.28;5132336;27;20410;-53
2022/03/03 10:48:00;;;;;;;1.10;0.57;;;;;;;22.96;16.68;94942.06;5132937;27;20458;-53
2022/03/03 10:50:46;;;;;;;0.40;0.40;;;;;;;23.08;15.51;94931.88;5132233;27;20473;-52
2022/03/03 10:53:17;;;;;;;2.20;0.80;;;;;;;20.47;17.02;94932.75;5132894;28;20465;-53
2022/03/03 10:56:00;;;;;;;0.70;0.50;;;;;;;20.70;17.73;94923.03;5132556;28;20427;-52
2022/03/03 10:58:45;;;;;;;6.00;0.80;;;;;;;18.90;18.81;94939.56;5132955;28;20457;-51
2022/03/03 11:01:14;;;;;;;0.57;0.57;;;;;;;17.10;19.61;94939.78;5130843;28;20442;-50
2022/03/03 11:03:49;;;;;;;0.40;0.40;;;;;;;16.30;23.17;94938.56;5132884;28;20419;-50
2022/03/03 11:06:20;;;;;;;0.47;0.33;;;;;;;16.33;22.37;94916.53;5132481;28;20544;-51
2022/03/03 11:08:49;;;;;;;0.40;0.30;;;;;;;17.07;21.61;94941.22;5132378;28;20423;-52
2022/03/03 11:11:18;;;;;;;0.83;0.60;;;;;;;17.49;20.81;94934.13;5132552;28;20535;-52
2022/03/03 11:13:49;;;;;;;0.40;0.20;;;;;;;15.87;22.63;94943.03;5132287;27;20469;-52
2022/03/03 11:16:19;;;;;;;1.27;1.23;;;;;;;15.03;23.79;94937.00;5132500;28;20418;-52
2022/03/03 11:18:48;;;;;;;0.50;0.30;;;;;;;14.17;24.97;94947.03;5132782;27;20746;-53
2022/03/03 11:21:17;;;;;;;0.80;0.80;;;;;;;13.43;27.54;94948.31;5132097;28;20442;-54
2022/03/03 11:23:47;;;;;;;0.60;0.60;;;;;;;14.63;26.11;94944.94;5132027;28;20509;-54
2022/03/03 11:26:22;;;;;;;0.70;0.70;;;;;;;14.14;27.23;94936.22;5132609;28;20845;-56
2022/03/03 11:29:01;;;;;;;0.60;0.57;;;;;;;14.73;26.23;94937.78;5132271;28;20477;-56
2022/03/03 11:31:32;;;;;;;0.47;0.30;;;;;;;14.61;27.63;94935.66;5132140;28;21017;-56
2022/03/03 11:34:25;;;;;;;0.40;0.33;;;;;;;13.96;27.16;94930.69;5131677;28;20422;-56
2022/03/03 11:37:02;;;;;;;0.50;0.50;;;;;;;12.80;28.37;94931.34;5132038;27;20466;-59
2022/03/03 11:39:44;;;;;;;0.50;0.37;;;;;;;13.06;27.21;94855.31;5132178;28;20906;-59
2022/03/03 11:42:24;;;;;;;0.77;0.70;;;;;;;13.17;26.98;94933.91;5130093;27;20464;-58
2022/03/03 11:44:57;;;;;;;1.00;1.00;;;;;;;13.23;28.33;94922.84;5131222;27;20418;-58
2022/03/03 11:47:30;;;;;;;0.50;0.40;;;;;;;14.15;27.09;94924.44;5135079;27;20527;-59
2022/03/03 11:50:13;;;;;;;0.50;0.33;;;;;;;14.90;25.05;94917.31;5134511;27;20549;-59
2022/03/03 11:52:42;;;;;;;0.73;0.73;;;;;;;14.13;25.31;94926.63;5134895;27;20557;-58
2022/03/03 11:55:32;;;;;;;0.87;0.60;;;;;;;12.73;26.14;94929.84;5134920;27;20426;-58
2022/03/03 11:58:04;;;;;;;2.60;0.97;;;;;;;13.07;26.33;94926.09;5135716;27;20458;-57